Time;durP1;ratioP1;P1;durP2;ratioP2;P2;SDS_P1;SDS_P2;PMS_P1;PMS_P2;Temp;Humidity;BMP_temperature;BMP_pressure;BME280_temperature;BME280_humidity;BME280_pressure;Samples;Min_cycle;Max_cycle;Signal;HPM_P1;HPM_P2
2022/04/23 00:02:23;;;;;;;5.13;2.53;;;18.10;55.40;;;;;;5032931;28;20132;-72
2022/04/23 00:04:49;;;;;;;3.22;2.10;;;17.80;50.50;;;;;;5015457;28;20057;-72
2022/04/23 00:07:16;;;;;;;3.00;2.40;;;16.90;55.10;;;;;;5015325;28;20401;-72
2022/04/23 00:09:43;;;;;;;3.92;2.65;;;17.90;55.60;;;;;;5014610;28;20057;-72
2022/04/23 00:12:10;;;;;;;3.78;2.40;;;17.90;55.60;;;;;;5032619;28;20041;-71
2022/04/23 00:14:36;;;;;;;2.95;2.13;;;18.10;55.50;;;;;;5015684;28;20053;-72
2022/04/23 00:17:04;;;;;;;3.17;2.40;;;17.20;55.40;;;;;;5032859;28;20506;-72
2022/04/23 00:19:31;;;;;;;2.95;2.40;;;17.80;55.60;;;;;;5015229;28;20409;-72
2022/04/23 00:21:58;;;;;;;3.35;2.38;;;17.80;55.60;;;;;;5014937;28;20057;-72
2022/04/23 00:24:26;;;;;;;2.88;2.25;;;17.90;55.60;;;;;;5014808;28;20437;-72
2022/04/23 00:26:52;;;;;;;3.03;2.25;;;17.60;55.70;;;;;;5014203;28;20187;-72
2022/04/23 00:29:19;;;;;;;3.25;2.40;;;17.70;55.60;;;;;;5014888;28;20396;-72
2022/04/23 00:31:46;;;;;;;3.60;2.50;;;17.60;55.30;;;;;;5032611;28;20045;-71
2022/04/23 00:34:14;;;;;;;2.70;2.10;;;17.60;53.70;;;;;;5015075;28;20057;-72
2022/04/23 00:36:41;;;;;;;2.65;2.17;;;17.60;55.50;;;;;;5014847;28;20063;-72
2022/04/23 00:39:07;;;;;;;2.70;2.38;;;17.90;55.70;;;;;;5014721;28;20405;-72
2022/04/23 00:41:46;;;;;;;2.95;2.42;;;17.70;55.50;;;;;;5014066;28;20055;-73
2022/04/23 00:44:13;;;;;;;4.72;2.90;;;17.50;55.70;;;;;;5032423;28;20054;-72
2022/04/23 00:46:40;;;;;;;2.90;2.30;;;17.70;57.70;;;;;;5014696;28;20111;-72
2022/04/23 00:49:07;;;;;;;3.35;2.20;;;17.70;50.70;;;;;;5031915;28;20072;-72
2022/04/23 00:51:35;;;;;;;3.67;2.55;;;18.20;56.70;;;;;;5014246;28;20054;-72
2022/04/23 00:54:04;;;;;;;3.00;2.38;;;17.70;56.80;;;;;;4997835;28;20111;-72
2022/04/23 00:56:31;;;;;;;3.90;2.70;;;17.80;55.60;;;;;;5014668;28;20522;-72
2022/04/23 00:58:58;;;;;;;2.88;2.25;;;17.50;55.40;;;;;;5032111;28;20054;-72
2022/04/23 01:01:25;;;;;;;3.00;2.35;;;17.70;55.70;;;;;;5014440;28;20383;-72
2022/04/23 01:03:52;;;;;;;3.72;2.80;;;17.60;55.60;;;;;;5014670;28;20156;-72
2022/04/23 01:06:19;;;;;;;2.97;2.28;;;17.60;50.70;;;;;;5013691;28;20056;-72
2022/04/23 01:08:48;;;;;;;3.47;2.45;;;17.80;55.40;;;;;;5031959;28;20053;-72
2022/04/23 01:11:14;;;;;;;2.55;2.28;;;17.10;55.20;;;;;;5014003;28;20049;-72
2022/04/23 01:13:44;;;;;;;3.13;2.40;;;16.60;55.20;;;;;;5032033;28;20048;-71
2022/04/23 01:16:11;;;;;;;2.92;2.47;;;17.40;56.80;;;;;;5014369;28;20065;-72
2022/04/23 01:18:41;;;;;;;3.20;2.60;;;17.60;55.70;;;;;;5014227;28;20056;-72
2022/04/23 01:21:10;;;;;;;3.10;2.45;;;17.60;50.80;;;;;;5013847;28;20054;-72
2022/04/23 01:23:37;;;;;;;5.13;2.80;;;17.50;55.90;;;;;;5031552;28;20081;-72
2022/04/23 01:26:04;;;;;;;3.03;2.60;;;17.40;55.60;;;;;;5014036;28;20085;-72
2022/04/23 01:28:30;;;;;;;5.78;2.80;;;17.60;55.80;;;;;;5014131;28;20053;-72
2022/04/23 01:30:59;;;;;;;3.95;2.70;;;17.60;51.40;;;;;;5014093;28;20053;-72
2022/04/23 01:33:26;;;;;;;3.15;2.70;;;17.40;56.00;;;;;;5014262;28;20136;-72
2022/04/23 01:35:52;;;;;;;3.33;2.70;;;17.60;56.00;;;;;;5014037;28;20057;-72
2022/04/23 01:38:20;;;;;;;3.30;2.60;;;16.80;55.30;;;;;;5013736;28;20064;-72
2022/04/23 01:40:47;;;;;;;3.58;2.85;;;18.10;57.40;;;;;;5017495;28;20053;-72
2022/04/23 01:43:14;;;;;;;3.70;2.85;;;;;;;;;;5018194;28;20061;-71
2022/04/23 01:45:41;;;;;;;3.03;2.50;;;17.50;55.50;;;;;;5018056;28;20054;-72
2022/04/23 01:48:07;;;;;;;3.45;2.60;;;17.50;55.80;;;;;;5017533;28;20075;-72
2022/04/23 01:50:35;;;;;;;3.80;2.85;;;17.50;50.30;;;;;;5035366;28;20067;-72
2022/04/23 01:53:02;;;;;;;3.67;2.88;;;17.60;57.20;;;;;;5035451;28;20060;-72
2022/04/23 01:55:30;;;;;;;4.55;3.05;;;17.50;55.70;;;;;;5035319;28;20468;-72
2022/04/23 01:57:57;;;;;;;4.50;2.70;;;17.20;55.60;;;;;;5017663;28;20053;-72
2022/04/23 02:00:23;;;;;;;4.03;2.90;;;16.70;55.20;;;;;;5017431;28;20045;-72
2022/04/23 02:02:50;;;;;;;4.25;2.70;;;16.80;55.50;;;;;;5017755;28;20524;-72
2022/04/23 02:05:17;;;;;;;3.95;2.70;;;17.60;55.70;;;;;;5035374;28;20056;-72
2022/04/23 02:07:44;;;;;;;4.13;2.97;;;17.50;55.90;;;;;;5017704;28;20067;-72
2022/04/23 02:10:12;;;;;;;3.65;2.72;;;17.30;55.50;;;;;;5017124;28;20517;-72
2022/04/23 02:12:41;;;;;;;3.47;2.53;;;17.50;55.80;;;;;;5017441;28;20054;-72
2022/04/23 02:15:09;;;;;;;4.65;2.80;;;17.50;56.30;;;;;;5035045;28;20060;-72
2022/04/23 02:17:35;;;;;;;3.47;2.80;;;17.80;56.40;;;;;;5017594;28;20061;-72
2022/04/23 02:20:03;;;;;;;3.65;2.70;;;17.10;55.80;;;;;;5017307;28;20131;-72
2022/04/23 02:22:30;;;;;;;3.70;2.60;;;17.70;56.80;;;;;;5017252;28;20049;-72
2022/04/23 02:24:57;;;;;;;3.85;2.90;;;17.60;56.20;;;;;;5017158;28;20057;-72
2022/04/23 02:27:24;;;;;;;3.80;2.95;;;18.20;57.00;;;;;;5016918;28;20057;-72
2022/04/23 02:29:52;;;;;;;3.58;2.70;;;18.00;56.40;;;;;;5016898;28;20053;-72
2022/04/23 02:32:19;;;;;;;3.30;2.65;;;17.50;56.20;;;;;;5035179;28;20055;-72
2022/04/23 02:34:45;;;;;;;4.13;2.70;;;16.80;50.90;;;;;;5016884;28;20064;-71
2022/04/23 02:37:12;;;;;;;4.53;2.85;;;17.30;56.10;;;;;;5034834;28;20064;-72
2022/04/23 02:39:39;;;;;;;4.63;3.22;;;18.00;56.60;;;;;;5034495;28;20053;-72
2022/04/23 02:42:06;;;;;;;3.40;2.70;;;17.40;56.00;;;;;;5016998;28;20057;-72
2022/04/23 02:44:34;;;;;;;4.15;2.92;;;17.10;56.10;;;;;;5016533;28;20475;-72
2022/04/23 02:47:02;;;;;;;3.28;2.65;;;18.00;56.30;;;;;;5016614;28;20057;-72
2022/04/23 02:49:29;;;;;;;3.58;2.60;;;17.40;55.90;;;;;;5016694;28;20054;-72
2022/04/23 02:51:55;;;;;;;3.88;2.95;;;17.20;55.90;;;;;;5016290;28;20409;-72
2022/04/23 02:54:22;;;;;;;3.50;2.67;;;17.60;56.20;;;;;;5016634;28;20128;-72
2022/04/23 02:56:50;;;;;;;4.28;3.03;;;17.40;56.20;;;;;;5034163;28;20054;-72
2022/04/23 02:59:17;;;;;;;4.38;3.10;;;17.30;56.20;;;;;;5034393;28;20056;-71
2022/04/23 03:01:43;;;;;;;4.40;3.00;;;17.20;56.00;;;;;;5033749;28;20069;-71
2022/04/23 03:04:11;;;;;;;4.05;3.00;;;17.20;56.10;;;;;;5034215;28;20425;-72
2022/04/23 03:06:38;;;;;;;3.95;2.78;;;17.20;56.10;;;;;;5016569;28;20053;-72
2022/04/23 03:09:05;;;;;;;4.03;3.08;;;17.10;56.10;;;;;;5033954;28;20084;-71
2022/04/23 03:11:33;;;;;;;4.65;3.00;;;17.30;56.40;;;;;;5016444;28;20144;-72
2022/04/23 03:14:00;;;;;;;4.18;2.80;;;16.80;56.10;;;;;;5016690;28;20057;-72
2022/04/23 03:16:27;;;;;;;3.83;2.80;;;17.30;56.10;;;;;;5016066;28;20486;-72
2022/04/23 03:18:54;;;;;;;3.50;3.05;;;17.20;56.30;;;;;;5016247;28;20057;-71
2022/04/23 03:21:22;;;;;;;3.60;3.00;;;17.20;56.30;;;;;;5015645;28;20102;-71
2022/04/23 03:23:48;;;;;;;3.72;3.20;;;17.20;56.20;;;;;;5016204;28;20053;-72
2022/04/23 03:26:15;;;;;;;4.72;2.85;;;16.50;55.50;;;;;;5016337;28;20175;-71
2022/04/23 03:28:42;;;;;;;4.22;2.78;;;16.90;55.90;;;;;;5016236;28;20053;-71
2022/04/23 03:31:09;;;;;;;3.55;3.20;;;17.20;56.00;;;;;;5015788;28;20115;-71
2022/04/23 03:33:35;;;;;;;3.90;2.97;;;16.50;55.70;;;;;;5015793;28;20056;-72
2022/04/23 03:36:02;;;;;;;4.18;2.97;;;17.10;56.40;;;;;;5015781;28;20067;-71
2022/04/23 03:38:31;;;;;;;4.68;3.13;;;17.10;56.30;;;;;;5016134;28;20064;-71
2022/04/23 03:40:58;;;;;;;4.95;3.10;;;17.40;56.30;;;;;;5015731;28;20072;-71
2022/04/23 03:43:25;;;;;;;3.67;2.80;;;;;;;;;;5015872;28;20485;-72
2022/04/23 03:45:52;;;;;;;4.03;2.92;;;16.90;56.50;;;;;;5015509;28;20103;-71
2022/04/23 03:48:19;;;;;;;3.78;3.00;;;17.10;56.10;;;;;;5015953;28;20053;-71
2022/04/23 03:50:47;;;;;;;3.70;2.78;;;17.00;56.40;;;;;;5014593;28;20053;-71
2022/04/23 03:53:14;;;;;;;4.05;3.10;;;17.50;56.40;;;;;;5015587;28;20107;-71
2022/04/23 03:55:42;;;;;;;3.88;2.92;;;17.00;56.30;;;;;;5033191;28;20056;-71
2022/04/23 03:58:08;;;;;;;4.53;3.00;;;17.00;56.00;;;;;;5015540;28;20508;-71
2022/04/23 04:00:36;;;;;;;4.38;3.10;;;16.90;56.00;;;;;;5033309;28;20059;-72
2022/04/23 04:03:02;;;;;;;3.38;3.08;;;16.90;56.10;;;;;;5014843;28;20529;-71
2022/04/23 04:05:29;;;;;;;4.18;3.25;;;16.70;56.30;;;;;;5033018;28;20057;-71
2022/04/23 04:07:56;;;;;;;3.65;2.90;;;16.90;56.20;;;;;;5015149;28;20144;-71
2022/04/23 04:10:23;;;;;;;3.40;2.75;;;17.00;56.30;;;;;;5014821;28;20055;-71
2022/04/23 04:12:51;;;;;;;5.03;3.03;;;16.80;50.40;;;;;;5015351;28;20061;-71
2022/04/23 04:15:20;;;;;;;3.80;3.00;;;16.40;56.10;;;;;;5015425;28;20068;-71
2022/04/23 04:17:48;;;;;;;3.83;3.08;;;16.90;56.20;;;;;;5032522;28;20490;-71
2022/04/23 04:20:14;;;;;;;4.65;3.20;;;16.80;56.50;;;;;;5014913;28;20056;-71
2022/04/23 04:22:41;;;;;;;3.13;2.83;;;17.80;56.60;;;;;;5015210;28;20064;-71
2022/04/23 04:25:09;;;;;;;3.53;2.97;;;17.00;56.50;;;;;;5014712;28;20148;-72
2022/04/23 04:27:36;;;;;;;3.83;3.00;;;16.80;56.00;;;;;;5014932;28;20136;-72
2022/04/23 04:30:05;;;;;;;3.83;3.00;;;16.90;56.30;;;;;;5014890;28;20482;-71
2022/04/23 04:32:31;;;;;;;4.13;3.30;;;17.00;56.40;;;;;;5014771;28;20054;-71
2022/04/23 04:34:58;;;;;;;3.47;2.90;;;;;;;;;;5014965;28;20092;-72
2022/04/23 04:37:27;;;;;;;3.65;3.13;;;17.00;56.00;;;;;;5014897;28;20137;-72
2022/04/23 04:39:54;;;;;;;4.00;3.10;;;16.90;56.00;;;;;;5014365;28;20053;-72
2022/04/23 04:42:20;;;;;;;4.18;3.25;;;17.60;56.80;;;;;;5015022;28;20517;-72
2022/04/23 04:44:49;;;;;;;4.10;3.13;;;16.50;55.80;;;;;;5014334;28;20053;-72
2022/04/23 04:47:18;;;;;;;3.58;2.90;;;18.00;57.60;;;;;;5014691;28;20410;-71
2022/04/23 04:49:44;;;;;;;5.25;3.30;;;17.00;55.90;;;;;;5014468;28;20057;-71
2022/04/23 04:52:11;;;;;;;3.28;2.92;;;16.60;52.60;;;;;;5014859;28;20148;-71
2022/04/23 04:54:38;;;;;;;4.15;3.00;;;17.10;55.70;;;;;;5014626;28;20060;-71
2022/04/23 04:57:05;;;;;;;4.07;3.00;;;17.00;56.10;;;;;;5014513;28;20057;-72
2022/04/23 04:59:32;;;;;;;3.35;2.92;;;17.00;56.10;;;;;;5014501;28;20091;-71
2022/04/23 05:02:00;;;;;;;3.28;2.92;;;;;;;;;;5014468;28;20041;-71
2022/04/23 05:04:28;;;;;;;4.72;3.30;;;17.30;56.10;;;;;;5014406;28;20469;-72
2022/04/23 05:06:55;;;;;;;3.88;3.13;;;16.80;55.90;;;;;;5032400;28;20068;-72
2022/04/23 05:09:21;;;;;;;3.95;3.13;;;16.90;56.00;;;;;;5014297;28;20132;-72
2022/04/23 05:11:48;;;;;;;3.95;3.50;;;17.10;55.90;;;;;;5014070;28;20050;-72
2022/04/23 05:14:16;;;;;;;4.18;3.30;;;17.60;56.20;;;;;;5014002;28;20390;-72
2022/04/23 05:16:43;;;;;;;3.30;3.00;;;17.30;56.30;;;;;;5014249;28;20053;-72
2022/04/23 05:19:10;;;;;;;5.55;3.47;;;17.10;54.10;;;;;;5014371;28;20049;-72
2022/04/23 05:21:38;;;;;;;3.40;3.10;;;17.00;55.80;;;;;;5014186;28;20430;-72
2022/04/23 05:24:06;;;;;;;4.85;3.15;;;16.50;55.60;;;;;;5014504;28;20067;-72
2022/04/23 05:26:34;;;;;;;3.33;3.00;;;17.10;56.10;;;;;;5014219;28;20406;-72
2022/04/23 05:29:00;;;;;;;3.90;3.10;;;17.20;56.10;;;;;;5014221;28;20088;-72
2022/04/23 05:31:27;;;;;;;4.47;3.30;;;17.60;56.50;;;;;;5013342;28;20482;-72
2022/04/23 05:33:54;;;;;;;3.63;3.30;;;16.90;55.80;;;;;;5014314;28;20136;-71
2022/04/23 05:36:21;;;;;;;4.38;3.50;;;17.00;56.10;;;;;;5031727;28;20080;-72
2022/04/23 05:38:49;;;;;;;3.28;2.97;;;16.90;50.70;;;;;;5014245;28;20409;-71
2022/04/23 05:41:16;;;;;;;4.07;3.05;;;;;;;;;;5013716;28;20053;-71
2022/04/23 05:43:43;;;;;;;4.25;3.40;;;17.70;56.50;;;;;;5031946;28;20460;-72
2022/04/23 05:46:10;;;;;;;3.95;3.15;;;16.80;56.00;;;;;;5013762;28;20057;-72
2022/04/23 05:48:37;;;;;;;3.60;3.05;;;16.90;55.70;;;;;;5013962;28;20053;-72
2022/04/23 05:51:03;;;;;;;5.03;3.40;;;17.10;56.20;;;;;;5013704;28;20418;-72
2022/04/23 05:53:30;;;;;;;3.50;3.20;;;;;;;;;;5031634;28;20476;-72
2022/04/23 05:55:59;;;;;;;3.83;3.20;;;17.00;55.80;;;;;;5013567;28;20137;-72
2022/04/23 05:58:25;;;;;;;3.95;3.25;;;16.10;55.30;;;;;;5031745;28;20409;-72
2022/04/23 06:00:52;;;;;;;3.83;3.38;;;17.10;56.20;;;;;;5013612;28;20054;-72
2022/04/23 06:03:20;;;;;;;4.25;3.30;;;17.00;55.80;;;;;;5031415;28;20053;-72
2022/04/23 06:05:47;;;;;;;3.83;3.17;;;17.00;56.10;;;;;;5031729;28;20045;-72
2022/04/23 06:08:13;;;;;;;3.80;3.25;;;17.10;56.00;;;;;;5013822;28;20059;-72
2022/04/23 06:10:40;;;;;;;5.00;3.45;;;16.30;55.60;;;;;;5031111;28;20405;-72
2022/04/23 06:13:08;;;;;;;4.22;3.13;;;17.00;55.70;;;;;;5013985;28;20049;-71
2022/04/23 06:15:35;;;;;;;3.83;3.30;;;17.00;55.60;;;;;;5013912;28;20144;-72
2022/04/23 06:18:02;;;;;;;3.80;3.40;;;16.10;55.20;;;;;;5013542;28;20049;-72
2022/04/23 06:20:29;;;;;;;4.50;3.35;;;17.00;55.70;;;;;;5030652;28;20049;-72
2022/04/23 06:22:55;;;;;;;4.20;3.38;;;17.20;53.20;;;;;;5013795;28;20140;-72
2022/04/23 06:25:22;;;;;;;3.42;3.10;;;17.00;55.50;;;;;;5014718;28;20478;-72
2022/04/23 06:27:50;;;;;;;3.90;3.50;;;17.00;55.80;;;;;;5017450;28;20409;-72
2022/04/23 06:30:18;;;;;;;4.18;3.30;;;17.00;55.80;;;;;;5016672;28;20053;-72
2022/04/23 06:32:45;;;;;;;3.90;3.40;;;17.20;55.60;;;;;;5017309;28;20131;-72
2022/04/23 06:35:11;;;;;;;4.10;3.60;;;17.00;55.80;;;;;;5034559;28;20049;-71
2022/04/23 06:37:40;;;;;;;4.22;3.47;;;17.10;55.70;;;;;;4997461;28;20491;-72
2022/04/23 06:40:08;;;;;;;5.03;3.17;;;17.10;55.60;;;;;;5014571;28;20057;-72
2022/04/23 06:42:35;;;;;;;3.50;3.20;;;18.00;56.00;;;;;;4997560;28;20058;-72
2022/04/23 06:45:01;;;;;;;3.80;3.40;;;17.30;50.40;;;;;;4997394;28;20466;-72
2022/04/23 06:47:29;;;;;;;3.47;3.05;;;17.50;55.20;;;;;;4997100;28;20060;-72
2022/04/23 06:49:58;;;;;;;3.83;3.42;;;17.50;54.90;;;;;;4996998;28;20062;-72
2022/04/23 06:52:25;;;;;;;3.75;3.10;;;16.80;55.00;;;;;;5004925;28;20154;-72
2022/04/23 06:54:54;;;;;;;4.25;3.50;;;18.10;55.30;;;;;;5034249;28;20053;-71
2022/04/23 06:57:22;;;;;;;4.97;3.50;;;17.80;54.50;;;;;;5034466;28;20453;-72
2022/04/23 06:59:49;;;;;;;4.30;3.28;;;18.60;54.70;;;;;;5016716;28;20486;-72
2022/04/23 07:02:15;;;;;;;3.22;2.90;;;18.10;54.50;;;;;;5016542;28;20053;-72
2022/04/23 07:04:44;;;;;;;3.53;2.85;;;18.40;54.50;;;;;;5034206;28;20051;-72
2022/04/23 07:07:11;;;;;;;4.10;3.20;;;18.20;54.10;;;;;;5016523;28;20049;-72
2022/04/23 07:09:37;;;;;;;3.50;2.92;;;17.80;53.70;;;;;;5016115;28;20053;-71
2022/04/23 07:12:05;;;;;;;3.90;3.10;;;18.50;54.00;;;;;;5016398;28;20070;-72
2022/04/23 07:14:32;;;;;;;4.82;3.20;;;18.70;54.00;;;;;;5000381;28;20537;-72
2022/04/23 07:16:59;;;;;;;3.30;3.00;;;19.00;54.20;;;;;;5016257;28;20061;-71
2022/04/23 07:19:26;;;;;;;3.60;3.00;;;18.70;53.90;;;;;;5016307;28;20144;-71
2022/04/23 07:21:54;;;;;;;3.47;3.00;;;18.70;48.60;;;;;;5016426;28;20045;-72
2022/04/23 07:24:21;;;;;;;3.47;2.80;;;18.80;53.10;;;;;;5015993;28;20053;-72
2022/04/23 07:26:48;;;;;;;3.47;2.90;;;18.90;53.00;;;;;;5016125;28;20057;-71
2022/04/23 07:29:14;;;;;;;3.08;2.78;;;18.90;53.20;;;;;;5000060;28;20049;-73
2022/04/23 07:31:41;;;;;;;3.58;3.15;;;19.70;53.70;;;;;;5015688;28;20056;-71
2022/04/23 07:39:46;;;;;;;4.45;3.03;;;19.00;53.60;;;;;;4980732;28;20379;-72
2022/04/23 07:42:13;;;;;;;3.10;2.80;;;19.80;53.10;;;;;;5033022;28;20049;-72
2022/04/23 07:44:40;;;;;;;3.35;2.70;;;19.10;52.90;;;;;;5015970;28;20107;-72
2022/04/23 07:47:07;;;;;;;3.95;3.13;;;19.70;53.10;;;;;;5015914;28;20057;-72
2022/04/23 07:49:34;;;;;;;3.13;2.78;;;19.30;52.80;;;;;;5015875;28;20112;-72
2022/04/23 07:52:02;;;;;;;3.50;2.83;;;18.80;52.80;;;;;;5015578;28;20414;-72
2022/04/23 07:54:29;;;;;;;3.47;2.80;;;19.30;52.80;;;;;;5015739;28;20067;-72
2022/04/23 07:56:56;;;;;;;2.97;2.67;;;19.10;47.70;;;;;;5015731;28;20406;-72
2022/04/23 07:59:23;;;;;;;6.15;2.80;;;19.10;53.20;;;;;;5015189;28;20060;-72
2022/04/23 08:01:50;;;;;;;5.30;2.80;;;18.70;52.00;;;;;;5015132;28;20498;-72
2022/04/23 08:04:16;;;;;;;3.10;2.80;;;19.20;53.60;;;;;;5015522;28;20061;-72
2022/04/23 08:06:43;;;;;;;4.25;3.00;;;19.40;52.80;;;;;;5015487;28;20061;-72
2022/04/23 08:09:12;;;;;;;3.50;2.95;;;19.10;52.70;;;;;;5015464;28;20513;-72
2022/04/23 08:11:38;;;;;;;3.42;2.85;;;19.20;47.60;;;;;;5015157;28;20057;-72
2022/04/23 08:14:05;;;;;;;4.57;3.03;;;19.30;53.50;;;;;;5015070;28;20426;-72
2022/04/23 08:16:32;;;;;;;3.15;2.70;;;19.30;52.40;;;;;;5015173;28;20476;-72
2022/04/23 08:18:59;;;;;;;3.08;2.72;;;18.50;52.00;;;;;;5032603;28;20050;-72
2022/04/23 08:21:25;;;;;;;3.40;2.80;;;20.20;54.30;;;;;;5015177;28;20437;-72
2022/04/23 08:23:52;;;;;;;4.47;3.00;;;19.30;47.50;;;;;;5032746;28;20048;-72
2022/04/23 08:26:20;;;;;;;3.30;2.78;;;20.30;53.10;;;;;;5032611;28;20046;-72
2022/04/23 08:31:31;;;;;;;3.42;2.85;;;19.50;51.80;;;;;;5014130;28;20057;-72
2022/04/23 08:34:01;;;;;;;3.78;3.15;;;19.80;52.10;;;;;;5032520;28;20045;-71
2022/04/23 08:36:29;;;;;;;3.75;2.92;;;19.40;52.30;;;;;;5015054;28;20557;-71
2022/04/23 08:38:59;;;;;;;3.90;2.92;;;18.60;52.00;;;;;;5015024;28;20068;-71
2022/04/23 08:41:31;;;;;;;3.17;2.80;;;19.50;47.20;;;;;;5014800;28;20049;-71
2022/04/23 08:43:59;;;;;;;3.70;2.88;;;18.80;51.50;;;;;;5014823;28;20426;-72
2022/04/23 08:46:26;;;;;;;3.10;2.72;;;19.30;51.80;;;;;;5031936;28;20053;-71
2022/04/23 08:48:56;;;;;;;3.20;2.80;;;19.80;52.10;;;;;;5032447;28;20052;-72
2022/04/23 08:51:23;;;;;;;3.83;2.65;;;19.90;54.30;;;;;;5014463;28;20478;-71
2022/04/23 08:53:50;;;;;;;3.42;2.88;;;19.70;51.80;;;;;;5014399;28;20054;-71
2022/04/23 08:56:16;;;;;;;3.83;2.85;;;20.00;52.00;;;;;;5014718;28;20050;-71
2022/04/23 08:58:45;;;;;;;3.83;2.70;;;19.50;47.20;;;;;;5014731;28;20049;-71
2022/04/23 09:01:12;;;;;;;3.78;2.97;;;19.40;52.90;;;;;;5013947;28;20196;-72
2022/04/23 09:03:39;;;;;;;4.95;2.72;;;19.30;51.70;;;;;;5014381;28;20056;-72
2022/04/23 09:06:06;;;;;;;3.03;2.72;;;19.70;52.20;;;;;;5014028;28;20457;-71
2022/04/23 09:08:32;;;;;;;5.40;3.13;;;19.80;52.00;;;;;;5014612;28;20057;-71
2022/04/23 09:10:59;;;;;;;4.68;2.75;;;19.50;47.30;;;;;;5014303;28;20060;-71
2022/04/23 09:13:26;;;;;;;4.18;2.90;;;19.00;51.90;;;;;;5014714;28;20500;-72
2022/04/23 09:24:18;;;;;;;5.25;2.67;;;19.50;47.10;;;;;;5014230;28;20045;-71
2022/04/23 09:26:45;;;;;;;3.72;2.85;;;19.40;51.20;;;;;;5032046;28;20421;-72
2022/04/23 09:29:17;;;;;;;3.10;2.80;;;19.50;46.50;;;;;;5031837;28;20123;-71
2022/04/23 09:31:46;;;;;;;3.17;2.67;;;19.70;52.00;;;;;;5014189;28;20049;-72
2022/04/23 09:34:16;;;;;;;3.67;3.05;;;19.40;52.00;;;;;;5013478;28;20055;-72
2022/04/23 09:36:49;;;;;;;3.00;2.60;;;19.60;51.70;;;;;;5013880;28;20057;-72
2022/04/23 09:39:16;;;;;;;2.92;2.50;;;19.50;47.00;;;;;;5014210;28;20083;-71
2022/04/23 09:41:43;;;;;;;3.47;2.80;;;19.80;51.70;;;;;;5014198;28;20053;-72
2022/04/23 09:44:12;;;;;;;4.13;2.63;;;19.70;51.80;;;;;;5014088;28;20063;-72
2022/04/23 09:46:46;;;;;;;4.22;2.83;;;19.00;51.20;;;;;;5014033;28;20053;-72
2022/04/23 09:49:13;;;;;;;3.40;2.80;;;19.70;52.10;;;;;;5031517;28;20100;-72
2022/04/23 09:51:41;;;;;;;3.75;2.58;;;18.60;51.00;;;;;;5012832;28;20053;-72
2022/04/23 09:54:07;;;;;;;4.13;2.80;;;19.50;51.80;;;;;;5014104;28;20494;-72
2022/04/23 09:56:34;;;;;;;3.25;2.80;;;19.40;51.20;;;;;;5013848;28;20064;-71
2022/04/23 09:59:01;;;;;;;3.22;2.45;;;20.30;51.60;;;;;;5014016;28;20059;-72
2022/04/23 10:01:27;;;;;;;3.00;2.60;;;19.60;52.60;;;;;;5016621;28;20053;-72
2022/04/23 10:03:55;;;;;;;4.35;3.13;;;20.30;51.80;;;;;;5017844;28;20478;-72
2022/04/23 10:06:23;;;;;;;4.03;3.03;;;19.50;46.90;;;;;;5017245;28;20053;-72
2022/04/23 10:08:51;;;;;;;5.43;2.67;;;19.70;51.90;;;;;;5035492;28;20099;-72
2022/04/23 10:11:20;;;;;;;4.47;2.80;;;19.50;52.00;;;;;;5034969;28;20132;-72
2022/04/23 10:13:47;;;;;;;3.83;2.92;;;19.40;53.10;;;;;;5017793;28;20059;-72
2022/04/23 10:16:14;;;;;;;3.35;2.90;;;20.50;52.80;;;;;;5017453;28;20487;-72
2022/04/23 10:18:42;;;;;;;5.88;2.72;;;19.60;51.60;;;;;;5017276;28;20064;-72
2022/04/23 10:21:11;;;;;;;5.25;3.22;;;19.20;51.60;;;;;;5017316;28;20498;-72
2022/04/23 10:23:52;;;;;;;4.45;2.85;;;20.40;52.90;;;;;;5017537;28;20506;-72
2022/04/23 10:26:34;;;;;;;3.58;2.60;;;20.20;50.70;;;;;;5017350;28;20057;-72
2022/04/23 10:29:00;;;;;;;3.33;3.03;;;19.90;52.40;;;;;;5017601;28;20049;-72
2022/04/23 10:31:27;;;;;;;3.28;2.97;;;19.60;47.00;;;;;;5017023;28;20049;-71
2022/04/23 10:33:54;;;;;;;4.68;2.97;;;19.70;51.90;;;;;;5017111;28;20062;-72
2022/04/23 10:36:23;;;;;;;3.20;2.90;;;19.90;51.70;;;;;;5034895;28;20398;-72
2022/04/23 10:38:53;;;;;;;4.13;3.10;;;19.50;51.20;;;;;;5017024;28;20524;-71
2022/04/23 10:41:21;;;;;;;3.22;2.80;;;19.40;51.50;;;;;;5016703;28;20111;-72
2022/04/23 10:43:48;;;;;;;3.40;2.70;;;20.10;52.10;;;;;;5017245;28;20327;-72
2022/04/23 10:46:56;;;;;;;6.30;3.00;;;19.20;52.60;;;;;;5017019;28;20060;-72
2022/04/23 10:49:23;;;;;;;6.38;3.15;;;19.60;52.10;;;;;;5016824;28;20065;-70
2022/04/23 10:51:53;;;;;;;3.10;2.78;;;19.00;51.20;;;;;;5016842;28;20449;-72
2022/04/23 10:54:21;;;;;;;4.15;2.80;;;19.60;51.70;;;;;;5016967;28;20064;-71
2022/04/23 10:56:51;;;;;;;5.15;3.13;;;19.50;52.80;;;;;;5000362;28;20053;-71
2022/04/23 10:59:35;;;;;;;4.85;3.28;;;19.60;46.90;;;;;;5016613;28;20053;-71
2022/04/23 11:02:05;;;;;;;7.03;3.00;;;19.30;51.40;;;;;;5017003;28;20462;-71
2022/04/23 11:04:33;;;;;;;3.88;2.88;;;19.70;51.30;;;;;;5034244;28;20049;-71
2022/04/23 11:12:33;;;;;;;4.07;2.90;;;19.60;46.90;;;;;;5015457;28;20053;-71
2022/04/23 11:15:01;;;;;;;3.88;2.80;;;19.60;46.90;;;;;;5016419;28;20440;-72
2022/04/23 11:17:53;;;;;;;4.40;2.80;;;19.60;51.50;;;;;;5034075;28;20401;-71
2022/04/23 11:20:38;;;;;;;4.07;2.83;;;20.40;52.10;;;;;;5016349;28;20069;-71
2022/04/23 11:23:07;;;;;;;4.75;2.80;;;19.60;46.50;;;;;;5016382;28;20057;-71
2022/04/23 11:25:34;;;;;;;3.00;2.63;;;19.60;51.30;;;;;;5016316;28;20103;-71
2022/04/23 11:28:14;;;;;;;3.90;2.75;;;19.50;51.70;;;;;;5016156;28;20486;-71
2022/04/23 11:30:41;;;;;;;3.63;2.58;;;19.60;47.00;;;;;;4996456;28;20060;-71
2022/04/23 11:33:12;;;;;;;4.47;2.83;;;19.00;52.20;;;;;;4996446;28;20045;-71
2022/04/23 11:35:39;;;;;;;3.17;2.70;;;19.70;51.80;;;;;;4980089;28;20073;-72
2022/04/23 11:38:17;;;;;;;3.65;2.58;;;18.90;51.80;;;;;;4996554;28;20132;-72
2022/04/23 11:40:44;;;;;;;3.53;2.70;;;18.80;51.00;;;;;;4980097;28;20054;-72
2022/04/23 11:43:12;;;;;;;3.22;2.60;;;19.40;51.40;;;;;;4996502;28;20482;-72
2022/04/23 11:45:45;;;;;;;3.10;2.63;;;19.40;51.50;;;;;;5005044;28;20547;-72
2022/04/23 11:48:12;;;;;;;3.70;3.08;;;19.60;51.20;;;;;;5015970;28;20469;-72
2022/04/23 11:50:39;;;;;;;5.10;2.70;;;19.80;51.50;;;;;;5015385;28;20096;-72
2022/04/23 11:53:09;;;;;;;3.97;2.47;;;19.80;51.70;;;;;;5015616;28;20060;-72
2022/04/23 11:55:36;;;;;;;3.17;2.88;;;19.60;51.40;;;;;;5015764;28;20092;-72
2022/04/23 11:58:04;;;;;;;3.55;2.90;;;19.60;52.00;;;;;;5033328;28;20052;-72
2022/04/23 12:00:32;;;;;;;3.20;2.75;;;19.60;53.10;;;;;;5032607;28;20088;-72
2022/04/23 12:02:59;;;;;;;2.92;2.63;;;19.10;51.50;;;;;;5015692;28;20096;-72
2022/04/23 12:05:28;;;;;;;3.13;2.65;;;19.80;51.50;;;;;;5033157;28;20046;-72
2022/04/23 12:07:54;;;;;;;3.45;2.67;;;19.40;51.80;;;;;;5015629;28;20046;-72
2022/04/23 12:10:26;;;;;;;3.47;2.60;;;20.60;53.60;;;;;;5015281;28;20115;-72
2022/04/23 12:12:53;;;;;;;4.90;2.78;;;19.70;52.40;;;;;;5015315;28;20414;-72
2022/04/23 12:15:23;;;;;;;3.67;2.53;;;19.60;46.90;;;;;;5032315;28;20053;-72
2022/04/23 12:17:50;;;;;;;6.05;2.72;;;19.60;51.50;;;;;;5015562;28;20350;-71
2022/04/23 12:20:19;;;;;;;3.67;2.50;;;19.50;51.70;;;;;;5015378;28;20057;-72
2022/04/23 12:22:56;;;;;;;3.58;2.70;;;19.40;51.40;;;;;;5014788;28;20133;-72
2022/04/23 12:25:25;;;;;;;3.60;2.55;;;20.30;52.10;;;;;;5014820;28;20402;-72
2022/04/23 12:27:57;;;;;;;3.45;2.40;;;19.50;52.60;;;;;;5032839;28;20080;-72
2022/04/23 12:41:37;;;;;;;4.10;2.60;;;19.00;51.50;;;;;;5014890;28;20054;-72
2022/04/23 12:44:19;;;;;;;5.15;3.08;;;19.60;51.50;;;;;;5015010;28;20535;-72
2022/04/23 12:46:55;;;;;;;2.75;2.47;;;19.60;51.70;;;;;;5014887;28;20057;-72
2022/04/23 12:49:23;;;;;;;2.63;2.42;;;18.80;51.00;;;;;;5014294;28;20051;-72
2022/04/23 12:51:53;;;;;;;3.85;2.63;;;19.50;46.80;;;;;;5014475;28;20072;-72
2022/04/23 12:54:21;;;;;;;5.80;2.80;;;18.40;51.80;;;;;;5014555;28;20049;-72
2022/04/23 12:56:48;;;;;;;3.78;2.55;;;19.60;52.20;;;;;;5014631;28;20395;-72
2022/04/23 12:59:15;;;;;;;3.28;2.60;;;19.50;46.90;;;;;;5014796;28;20049;-72
2022/04/23 13:01:44;;;;;;;3.35;2.60;;;19.50;46.80;;;;;;5014482;28;20049;-72
2022/04/23 13:04:13;;;;;;;3.05;2.50;;;19.50;52.80;;;;;;5014787;28;20057;-72
2022/04/23 13:09:24;;;;;;;3.30;2.40;;;19.60;51.90;;;;;;5014348;28;20053;-72
2022/04/23 13:11:51;;;;;;;2.85;2.45;;;19.50;52.20;;;;;;5014417;28;20405;-72
2022/04/23 13:14:18;;;;;;;3.08;2.65;;;19.50;46.80;;;;;;5014272;28;20045;-72
2022/04/23 13:16:46;;;;;;;3.38;2.45;;;18.70;50.40;;;;;;5014525;28;20060;-72
2022/04/23 13:19:14;;;;;;;4.45;2.42;;;19.60;52.10;;;;;;5031664;28;20409;-72
2022/04/23 13:21:41;;;;;;;3.17;2.70;;;19.80;52.40;;;;;;5031436;28;20050;-72
2022/04/23 13:24:08;;;;;;;3.03;2.53;;;19.50;46.60;;;;;;4998181;28;20158;-71
2022/04/23 13:26:34;;;;;;;3.65;2.83;;;19.30;51.00;;;;;;5014081;28;20056;-72
2022/04/23 13:29:01;;;;;;;2.50;2.20;;;18.60;51.50;;;;;;5032075;28;20409;-72